sensor_id;sensor_type;location;lat;lon;timestamp;temperature;humidity
76120;DHT22;64852;48.092;-1.640;2024-03-17T00:00:41;14.70;99.90
76120;DHT22;64852;48.092;-1.640;2024-03-17T00:03:07;14.70;99.90
76120;DHT22;64852;48.092;-1.640;2024-03-17T00:05:36;14.60;99.90
76120;DHT22;64852;48.092;-1.640;2024-03-17T00:08:04;14.80;99.90
76120;DHT22;64852;48.092;-1.640;2024-03-17T00:10:30;14.70;99.90
76120;DHT22;64852;48.092;-1.640;2024-03-17T00:12:56;14.70;99.90
76120;DHT22;64852;48.092;-1.640;2024-03-17T00:15:22;14.70;99.90
76120;DHT22;64852;48.092;-1.640;2024-03-17T00:17:48;14.70;99.90
76120;DHT22;64852;48.092;-1.640;2024-03-17T00:20:13;14.60;99.90
76120;DHT22;64852;48.092;-1.640;2024-03-17T00:22:47;14.60;99.90
76120;DHT22;64852;48.092;-1.640;2024-03-17T00:25:13;14.70;99.90
76120;DHT22;64852;48.092;-1.640;2024-03-17T00:27:39;14.60;99.90
76120;DHT22;64852;48.092;-1.640;2024-03-17T00:30:08;14.50;99.90
76120;DHT22;64852;48.092;-1.640;2024-03-17T00:32:38;14.60;99.90
76120;DHT22;64852;48.092;-1.640;2024-03-17T00:35:03;14.70;99.90
76120;DHT22;64852;48.092;-1.640;2024-03-17T00:37:30;14.60;99.90
76120;DHT22;64852;48.092;-1.640;2024-03-17T00:39:55;14.60;99.90
76120;DHT22;64852;48.092;-1.640;2024-03-17T00:42:21;14.60;99.90
76120;DHT22;64852;48.092;-1.640;2024-03-17T00:44:46;14.60;99.90
76120;DHT22;64852;48.092;-1.640;2024-03-17T00:47:12;14.60;99.90
76120;DHT22;64852;48.092;-1.640;2024-03-17T00:49:37;14.60;99.90
76120;DHT22;64852;48.092;-1.640;2024-03-17T00:52:03;14.60;99.90
76120;DHT22;64852;48.092;-1.640;2024-03-17T00:54:28;14.60;99.90
76120;DHT22;64852;48.092;-1.640;2024-03-17T00:56:54;14.60;99.90
76120;DHT22;64852;48.092;-1.640;2024-03-17T00:59:19;14.60;99.90
76120;DHT22;64852;48.092;-1.640;2024-03-17T01:01:45;14.50;99.90
76120;DHT22;64852;48.092;-1.640;2024-03-17T01:04:10;14.40;99.90
76120;DHT22;64852;48.092;-1.640;2024-03-17T01:06:36;14.50;99.90
76120;DHT22;64852;48.092;-1.640;2024-03-17T01:09:03;14.50;99.90
76120;DHT22;64852;48.092;-1.640;2024-03-17T01:11:29;14.50;99.90
76120;DHT22;64852;48.092;-1.640;2024-03-17T01:13:54;14.40;99.90
76120;DHT22;64852;48.092;-1.640;2024-03-17T01:16:20;14.50;99.90
76120;DHT22;64852;48.092;-1.640;2024-03-17T01:18:45;14.50;99.90
76120;DHT22;64852;48.092;-1.640;2024-03-17T01:21:11;14.50;99.90
76120;DHT22;64852;48.092;-1.640;2024-03-17T01:23:37;14.50;99.90
76120;DHT22;64852;48.092;-1.640;2024-03-17T01:26:02;14.50;99.90
76120;DHT22;64852;48.092;-1.640;2024-03-17T01:28:28;14.60;99.90
76120;DHT22;64852;48.092;-1.640;2024-03-17T01:30:53;14.60;99.90
76120;DHT22;64852;48.092;-1.640;2024-03-17T01:33:19;14.40;99.90
76120;DHT22;64852;48.092;-1.640;2024-03-17T01:35:44;14.50;99.90
76120;DHT22;64852;48.092;-1.640;2024-03-17T01:38:10;14.40;99.90
76120;DHT22;64852;48.092;-1.640;2024-03-17T01:40:36;14.40;99.90
76120;DHT22;64852;48.092;-1.640;2024-03-17T01:43:01;14.40;99.90
76120;DHT22;64852;48.092;-1.640;2024-03-17T01:47:55;14.40;99.90
76120;DHT22;64852;48.092;-1.640;2024-03-17T01:50:23;14.50;99.90
76120;DHT22;64852;48.092;-1.640;2024-03-17T01:52:53;14.60;99.90
76120;DHT22;64852;48.092;-1.640;2024-03-17T01:55:19;14.40;99.90
76120;DHT22;64852;48.092;-1.640;2024-03-17T01:57:45;14.40;99.90
76120;DHT22;64852;48.092;-1.640;2024-03-17T02:00:11;14.40;99.90
76120;DHT22;64852;48.092;-1.640;2024-03-17T02:02:37;14.50;99.90
76120;DHT22;64852;48.092;-1.640;2024-03-17T02:05:03;14.40;99.90
76120;DHT22;64852;48.092;-1.640;2024-03-17T02:07:29;14.40;99.90
76120;DHT22;64852;48.092;-1.640;2024-03-17T02:09:58;14.40;99.90
76120;DHT22;64852;48.092;-1.640;2024-03-17T02:12:23;14.40;99.90
76120;DHT22;64852;48.092;-1.640;2024-03-17T02:14:49;14.40;99.90
76120;DHT22;64852;48.092;-1.640;2024-03-17T02:17:15;14.30;99.90
76120;DHT22;64852;48.092;-1.640;2024-03-17T02:19:41;14.40;99.90
76120;DHT22;64852;48.092;-1.640;2024-03-17T02:22:13;14.40;99.90
76120;DHT22;64852;48.092;-1.640;2024-03-17T02:24:38;14.50;99.90
76120;DHT22;64852;48.092;-1.640;2024-03-17T02:27:04;14.40;99.90
76120;DHT22;64852;48.092;-1.640;2024-03-17T02:29:29;14.40;99.90
76120;DHT22;64852;48.092;-1.640;2024-03-17T02:31:55;14.40;99.90
76120;DHT22;64852;48.092;-1.640;2024-03-17T02:34:20;14.50;99.90
76120;DHT22;64852;48.092;-1.640;2024-03-17T02:36:46;14.30;99.90
76120;DHT22;64852;48.092;-1.640;2024-03-17T02:39:12;14.40;99.90
76120;DHT22;64852;48.092;-1.640;2024-03-17T02:41:56;14.30;99.90
76120;DHT22;64852;48.092;-1.640;2024-03-17T02:44:21;14.30;99.90
76120;DHT22;64852;48.092;-1.640;2024-03-17T02:46:47;14.30;99.90
76120;DHT22;64852;48.092;-1.640;2024-03-17T02:49:13;14.40;99.90
76120;DHT22;64852;48.092;-1.640;2024-03-17T02:51:39;14.40;99.90
76120;DHT22;64852;48.092;-1.640;2024-03-17T02:54:05;14.40;99.90
76120;DHT22;64852;48.092;-1.640;2024-03-17T02:56:31;14.30;99.90
76120;DHT22;64852;48.092;-1.640;2024-03-17T02:58:57;14.20;99.90
76120;DHT22;64852;48.092;-1.640;2024-03-17T03:01:22;14.20;99.90
76120;DHT22;64852;48.092;-1.640;2024-03-17T03:03:48;14.20;99.90
76120;DHT22;64852;48.092;-1.640;2024-03-17T03:06:14;14.20;99.90
76120;DHT22;64852;48.092;-1.640;2024-03-17T03:08:40;14.20;99.90
76120;DHT22;64852;48.092;-1.640;2024-03-17T03:11:10;14.20;99.90
76120;DHT22;64852;48.092;-1.640;2024-03-17T03:13:39;14.20;99.90
76120;DHT22;64852;48.092;-1.640;2024-03-17T03:16:05;14.20;99.90
76120;DHT22;64852;48.092;-1.640;2024-03-17T03:18:31;14.20;99.90
76120;DHT22;64852;48.092;-1.640;2024-03-17T03:20:56;14.30;99.90
76120;DHT22;64852;48.092;-1.640;2024-03-17T03:23:22;14.20;99.90
76120;DHT22;64852;48.092;-1.640;2024-03-17T03:25:47;14.20;99.90
76120;DHT22;64852;48.092;-1.640;2024-03-17T03:28:19;14.20;99.90
76120;DHT22;64852;48.092;-1.640;2024-03-17T03:30:45;14.20;99.90
76120;DHT22;64852;48.092;-1.640;2024-03-17T03:33:10;14.20;99.90
76120;DHT22;64852;48.092;-1.640;2024-03-17T03:35:36;14.10;99.90
76120;DHT22;64852;48.092;-1.640;2024-03-17T03:38:01;14.20;99.90
76120;DHT22;64852;48.092;-1.640;2024-03-17T03:40:28;14.00;99.90
76120;DHT22;64852;48.092;-1.640;2024-03-17T03:42:53;14.10;99.90
76120;DHT22;64852;48.092;-1.640;2024-03-17T03:45:19;14.00;99.90
76120;DHT22;64852;48.092;-1.640;2024-03-17T03:47:45;14.00;99.90
76120;DHT22;64852;48.092;-1.640;2024-03-17T03:50:11;14.00;99.90
76120;DHT22;64852;48.092;-1.640;2024-03-17T03:52:37;13.90;99.90
76120;DHT22;64852;48.092;-1.640;2024-03-17T03:55:06;13.90;99.90
76120;DHT22;64852;48.092;-1.640;2024-03-17T03:57:33;14.00;99.90
76120;DHT22;64852;48.092;-1.640;2024-03-17T03:59:59;14.00;99.90
76120;DHT22;64852;48.092;-1.640;2024-03-17T04:02:25;14.00;99.90
76120;DHT22;64852;48.092;-1.640;2024-03-17T04:04:56;13.90;99.90
76120;DHT22;64852;48.092;-1.640;2024-03-17T04:07:22;14.00;99.90
76120;DHT22;64852;48.092;-1.640;2024-03-17T04:09:47;13.90;99.90
76120;DHT22;64852;48.092;-1.640;2024-03-17T04:12:13;14.00;99.90
76120;DHT22;64852;48.092;-1.640;2024-03-17T04:14:38;14.00;99.90
76120;DHT22;64852;48.092;-1.640;2024-03-17T04:17:04;14.00;99.90
76120;DHT22;64852;48.092;-1.640;2024-03-17T04:19:30;13.90;99.90
76120;DHT22;64852;48.092;-1.640;2024-03-17T04:21:56;14.00;99.90
76120;DHT22;64852;48.092;-1.640;2024-03-17T04:24:21;14.00;99.90
76120;DHT22;64852;48.092;-1.640;2024-03-17T04:26:47;14.00;99.90
76120;DHT22;64852;48.092;-1.640;2024-03-17T04:29:13;12.50;99.90
76120;DHT22;64852;48.092;-1.640;2024-03-17T04:31:39;14.00;99.90
76120;DHT22;64852;48.092;-1.640;2024-03-17T04:34:04;14.00;99.90
76120;DHT22;64852;48.092;-1.640;2024-03-17T04:36:30;13.90;99.90
76120;DHT22;64852;48.092;-1.640;2024-03-17T04:38:55;13.90;99.90
76120;DHT22;64852;48.092;-1.640;2024-03-17T04:41:21;14.00;99.90
76120;DHT22;64852;48.092;-1.640;2024-03-17T04:43:47;13.90;99.90
76120;DHT22;64852;48.092;-1.640;2024-03-17T04:46:12;14.00;99.90
76120;DHT22;64852;48.092;-1.640;2024-03-17T04:48:39;14.00;99.90
76120;DHT22;64852;48.092;-1.640;2024-03-17T04:51:04;13.90;99.90
76120;DHT22;64852;48.092;-1.640;2024-03-17T04:53:30;13.90;99.90
76120;DHT22;64852;48.092;-1.640;2024-03-17T04:56:00;13.90;99.90
76120;DHT22;64852;48.092;-1.640;2024-03-17T04:58:25;13.90;99.90
76120;DHT22;64852;48.092;-1.640;2024-03-17T05:00:51;13.90;99.90
76120;DHT22;64852;48.092;-1.640;2024-03-17T05:03:16;13.90;99.90
76120;DHT22;64852;48.092;-1.640;2024-03-17T05:05:42;14.00;99.90
76120;DHT22;64852;48.092;-1.640;2024-03-17T05:08:07;13.90;99.90
76120;DHT22;64852;48.092;-1.640;2024-03-17T05:10:33;13.90;99.90
76120;DHT22;64852;48.092;-1.640;2024-03-17T05:12:59;13.90;99.90
76120;DHT22;64852;48.092;-1.640;2024-03-17T05:15:24;13.80;99.90
76120;DHT22;64852;48.092;-1.640;2024-03-17T05:17:50;13.80;99.90
76120;DHT22;64852;48.092;-1.640;2024-03-17T05:20:15;13.90;99.90
76120;DHT22;64852;48.092;-1.640;2024-03-17T05:22:41;13.80;99.90
76120;DHT22;64852;48.092;-1.640;2024-03-17T05:25:06;14.00;99.90
76120;DHT22;64852;48.092;-1.640;2024-03-17T05:27:32;14.00;99.90
76120;DHT22;64852;48.092;-1.640;2024-03-17T05:29:59;13.90;99.90
76120;DHT22;64852;48.092;-1.640;2024-03-17T05:32:24;13.90;99.90
76120;DHT22;64852;48.092;-1.640;2024-03-17T05:34:51;13.90;99.90
76120;DHT22;64852;48.092;-1.640;2024-03-17T05:37:17;14.00;99.90
76120;DHT22;64852;48.092;-1.640;2024-03-17T05:39:42;13.90;99.90
76120;DHT22;64852;48.092;-1.640;2024-03-17T05:42:08;14.00;99.90
76120;DHT22;64852;48.092;-1.640;2024-03-17T05:44:33;14.00;99.90
76120;DHT22;64852;48.092;-1.640;2024-03-17T05:47:16;14.00;99.90
76120;DHT22;64852;48.092;-1.640;2024-03-17T05:49:42;13.90;99.90
76120;DHT22;64852;48.092;-1.640;2024-03-17T05:52:07;13.90;99.90
76120;DHT22;64852;48.092;-1.640;2024-03-17T05:54:33;13.90;99.90
76120;DHT22;64852;48.092;-1.640;2024-03-17T05:56:59;13.90;99.90
76120;DHT22;64852;48.092;-1.640;2024-03-17T05:59:24;13.80;99.90
76120;DHT22;64852;48.092;-1.640;2024-03-17T06:01:50;13.60;99.90
76120;DHT22;64852;48.092;-1.640;2024-03-17T06:04:15;13.70;99.90
76120;DHT22;64852;48.092;-1.640;2024-03-17T06:06:42;13.80;99.90
76120;DHT22;64852;48.092;-1.640;2024-03-17T06:09:08;13.70;99.90
76120;DHT22;64852;48.092;-1.640;2024-03-17T06:11:35;13.80;99.90
76120;DHT22;64852;48.092;-1.640;2024-03-17T06:14:01;13.90;99.90
76120;DHT22;64852;48.092;-1.640;2024-03-17T06:16:30;13.90;99.90
76120;DHT22;64852;48.092;-1.640;2024-03-17T06:18:56;13.80;99.90
76120;DHT22;64852;48.092;-1.640;2024-03-17T06:21:21;13.90;99.90
76120;DHT22;64852;48.092;-1.640;2024-03-17T06:23:47;13.90;99.90
76120;DHT22;64852;48.092;-1.640;2024-03-17T06:26:12;13.80;99.90
76120;DHT22;64852;48.092;-1.640;2024-03-17T06:28:38;13.80;99.90
76120;DHT22;64852;48.092;-1.640;2024-03-17T06:31:03;13.70;99.90
76120;DHT22;64852;48.092;-1.640;2024-03-17T06:33:32;13.70;99.90
76120;DHT22;64852;48.092;-1.640;2024-03-17T06:36:00;13.80;99.90
76120;DHT22;64852;48.092;-1.640;2024-03-17T06:38:26;13.70;99.90
76120;DHT22;64852;48.092;-1.640;2024-03-17T06:40:52;13.80;99.90
76120;DHT22;64852;48.092;-1.640;2024-03-17T06:43:18;13.80;99.90
76120;DHT22;64852;48.092;-1.640;2024-03-17T06:45:53;13.80;99.90
76120;DHT22;64852;48.092;-1.640;2024-03-17T06:48:18;13.80;99.90
76120;DHT22;64852;48.092;-1.640;2024-03-17T06:50:44;13.90;99.90
76120;DHT22;64852;48.092;-1.640;2024-03-17T06:53:09;13.90;99.90
76120;DHT22;64852;48.092;-1.640;2024-03-17T06:55:35;13.80;99.90
76120;DHT22;64852;48.092;-1.640;2024-03-17T06:58:00;13.90;99.90
76120;DHT22;64852;48.092;-1.640;2024-03-17T07:00:26;13.90;99.90
76120;DHT22;64852;48.092;-1.640;2024-03-17T07:02:51;13.80;99.90
76120;DHT22;64852;48.092;-1.640;2024-03-17T07:05:17;13.90;99.90
76120;DHT22;64852;48.092;-1.640;2024-03-17T07:07:43;14.00;99.90
76120;DHT22;64852;48.092;-1.640;2024-03-17T07:10:09;14.20;99.90
76120;DHT22;64852;48.092;-1.640;2024-03-17T07:12:36;14.10;99.90
76120;DHT22;64852;48.092;-1.640;2024-03-17T07:15:01;14.10;99.90
76120;DHT22;64852;48.092;-1.640;2024-03-17T07:17:27;14.10;99.90
76120;DHT22;64852;48.092;-1.640;2024-03-17T07:19:52;14.10;99.90
76120;DHT22;64852;48.092;-1.640;2024-03-17T07:22:18;14.10;99.90
76120;DHT22;64852;48.092;-1.640;2024-03-17T07:24:43;14.20;99.90
76120;DHT22;64852;48.092;-1.640;2024-03-17T07:27:10;14.20;99.90
76120;DHT22;64852;48.092;-1.640;2024-03-17T07:29:39;14.20;99.90
76120;DHT22;64852;48.092;-1.640;2024-03-17T07:32:04;14.20;99.90
76120;DHT22;64852;48.092;-1.640;2024-03-17T07:34:30;14.30;99.90
76120;DHT22;64852;48.092;-1.640;2024-03-17T07:36:56;14.30;99.90
76120;DHT22;64852;48.092;-1.640;2024-03-17T07:39:22;14.30;99.90
76120;DHT22;64852;48.092;-1.640;2024-03-17T07:41:47;14.30;99.90
76120;DHT22;64852;48.092;-1.640;2024-03-17T07:44:13;13.90;99.90
76120;DHT22;64852;48.092;-1.640;2024-03-17T07:46:38;14.30;99.90
76120;DHT22;64852;48.092;-1.640;2024-03-17T07:49:04;14.40;99.90
76120;DHT22;64852;48.092;-1.640;2024-03-17T07:51:30;14.40;99.90
76120;DHT22;64852;48.092;-1.640;2024-03-17T07:53:55;14.30;99.90
76120;DHT22;64852;48.092;-1.640;2024-03-17T07:56:21;14.40;99.90
76120;DHT22;64852;48.092;-1.640;2024-03-17T07:58:47;14.30;99.90
76120;DHT22;64852;48.092;-1.640;2024-03-17T08:01:14;14.30;99.90
76120;DHT22;64852;48.092;-1.640;2024-03-17T08:03:41;14.40;99.90
76120;DHT22;64852;48.092;-1.640;2024-03-17T08:06:07;14.40;99.90
76120;DHT22;64852;48.092;-1.640;2024-03-17T08:08:33;14.40;99.90
76120;DHT22;64852;48.092;-1.640;2024-03-17T08:10:58;14.40;99.90
76120;DHT22;64852;48.092;-1.640;2024-03-17T08:13:24;14.60;99.90
76120;DHT22;64852;48.092;-1.640;2024-03-17T08:15:59;14.50;99.90
76120;DHT22;64852;48.092;-1.640;2024-03-17T08:18:25;14.50;99.90
76120;DHT22;64852;48.092;-1.640;2024-03-17T08:20:52;14.60;99.90
76120;DHT22;64852;48.092;-1.640;2024-03-17T08:23:19;14.60;99.90
76120;DHT22;64852;48.092;-1.640;2024-03-17T08:25:51;14.60;99.90
76120;DHT22;64852;48.092;-1.640;2024-03-17T08:28:17;14.70;99.90
76120;DHT22;64852;48.092;-1.640;2024-03-17T08:30:42;14.70;99.90
76120;DHT22;64852;48.092;-1.640;2024-03-17T08:33:07;14.70;99.90
76120;DHT22;64852;48.092;-1.640;2024-03-17T08:35:34;14.70;99.90
76120;DHT22;64852;48.092;-1.640;2024-03-17T08:38:02;14.80;99.90
76120;DHT22;64852;48.092;-1.640;2024-03-17T08:40:28;14.80;99.90
76120;DHT22;64852;48.092;-1.640;2024-03-17T08:42:53;14.70;99.90
76120;DHT22;64852;48.092;-1.640;2024-03-17T08:45:19;14.80;99.90
76120;DHT22;64852;48.092;-1.640;2024-03-17T08:47:44;14.90;99.90
76120;DHT22;64852;48.092;-1.640;2024-03-17T08:50:10;14.80;99.90
76120;DHT22;64852;48.092;-1.640;2024-03-17T08:52:37;14.80;99.90
76120;DHT22;64852;48.092;-1.640;2024-03-17T08:55:03;14.80;99.90
76120;DHT22;64852;48.092;-1.640;2024-03-17T08:57:31;14.90;99.90
76120;DHT22;64852;48.092;-1.640;2024-03-17T08:59:56;14.80;99.90
76120;DHT22;64852;48.092;-1.640;2024-03-17T09:02:22;14.90;99.90
76120;DHT22;64852;48.092;-1.640;2024-03-17T09:04:47;14.90;99.90
76120;DHT22;64852;48.092;-1.640;2024-03-17T09:07:13;15.00;99.90
76120;DHT22;64852;48.092;-1.640;2024-03-17T09:09:44;15.00;99.90
76120;DHT22;64852;48.092;-1.640;2024-03-17T09:12:11;15.00;99.90
76120;DHT22;64852;48.092;-1.640;2024-03-17T09:14:37;15.10;99.90
76120;DHT22;64852;48.092;-1.640;2024-03-17T09:17:03;15.10;99.90
76120;DHT22;64852;48.092;-1.640;2024-03-17T09:19:28;15.10;99.90
76120;DHT22;64852;48.092;-1.640;2024-03-17T09:21:54;15.20;99.90
76120;DHT22;64852;48.092;-1.640;2024-03-17T09:24:20;15.20;99.90
76120;DHT22;64852;48.092;-1.640;2024-03-17T09:26:46;15.20;99.90
76120;DHT22;64852;48.092;-1.640;2024-03-17T09:29:12;15.30;99.90
76120;DHT22;64852;48.092;-1.640;2024-03-17T09:31:38;15.40;99.90
76120;DHT22;64852;48.092;-1.640;2024-03-17T09:34:05;15.30;99.90
76120;DHT22;64852;48.092;-1.640;2024-03-17T09:36:30;15.40;99.90
76120;DHT22;64852;48.092;-1.640;2024-03-17T09:38:56;15.40;99.90
76120;DHT22;64852;48.092;-1.640;2024-03-17T09:41:23;15.50;99.90
76120;DHT22;64852;48.092;-1.640;2024-03-17T09:43:53;15.60;99.90
76120;DHT22;64852;48.092;-1.640;2024-03-17T09:46:18;15.50;99.90
76120;DHT22;64852;48.092;-1.640;2024-03-17T09:48:44;15.60;99.90
76120;DHT22;64852;48.092;-1.640;2024-03-17T09:51:19;15.70;99.90
76120;DHT22;64852;48.092;-1.640;2024-03-17T09:53:45;15.70;99.90
76120;DHT22;64852;48.092;-1.640;2024-03-17T09:58:36;15.80;99.90
76120;DHT22;64852;48.092;-1.640;2024-03-17T10:01:02;15.90;99.90
76120;DHT22;64852;48.092;-1.640;2024-03-17T10:06:29;15.90;99.90
76120;DHT22;64852;48.092;-1.640;2024-03-17T10:08:55;15.90;99.90
76120;DHT22;64852;48.092;-1.640;2024-03-17T10:11:22;15.90;99.90
76120;DHT22;64852;48.092;-1.640;2024-03-17T10:14:09;15.80;99.90
76120;DHT22;64852;48.092;-1.640;2024-03-17T10:16:36;15.80;99.90
76120;DHT22;64852;48.092;-1.640;2024-03-17T10:19:09;15.90;99.90
76120;DHT22;64852;48.092;-1.640;2024-03-17T10:21:42;15.90;99.90
76120;DHT22;64852;48.092;-1.640;2024-03-17T10:24:11;15.90;99.90
76120;DHT22;64852;48.092;-1.640;2024-03-17T10:29:15;16.00;99.90
76120;DHT22;64852;48.092;-1.640;2024-03-17T10:31:43;16.10;99.90
76120;DHT22;64852;48.092;-1.640;2024-03-17T10:34:11;16.10;99.90
76120;DHT22;64852;48.092;-1.640;2024-03-17T10:36:39;16.30;99.90
76120;DHT22;64852;48.092;-1.640;2024-03-17T10:39:12;16.50;99.90
76120;DHT22;64852;48.092;-1.640;2024-03-17T10:41:41;16.50;99.90
76120;DHT22;64852;48.092;-1.640;2024-03-17T10:44:07;16.70;99.90
76120;DHT22;64852;48.092;-1.640;2024-03-17T10:46:33;16.90;99.90
76120;DHT22;64852;48.092;-1.640;2024-03-17T10:48:58;17.00;99.90
76120;DHT22;64852;48.092;-1.640;2024-03-17T10:51:24;17.00;99.90
76120;DHT22;64852;48.092;-1.640;2024-03-17T10:53:50;17.10;99.90
76120;DHT22;64852;48.092;-1.640;2024-03-17T10:56:18;17.20;99.90
76120;DHT22;64852;48.092;-1.640;2024-03-17T10:58:44;17.10;99.90
76120;DHT22;64852;48.092;-1.640;2024-03-17T11:01:15;17.30;99.90
76120;DHT22;64852;48.092;-1.640;2024-03-17T11:03:41;17.30;99.90
76120;DHT22;64852;48.092;-1.640;2024-03-17T11:06:07;17.20;99.90
76120;DHT22;64852;48.092;-1.640;2024-03-17T11:08:33;17.30;99.90
76120;DHT22;64852;48.092;-1.640;2024-03-17T11:10:59;17.50;99.90
76120;DHT22;64852;48.092;-1.640;2024-03-17T11:13:28;17.80;99.90
76120;DHT22;64852;48.092;-1.640;2024-03-17T11:15:55;18.00;99.90
76120;DHT22;64852;48.092;-1.640;2024-03-17T11:18:36;18.10;99.90
76120;DHT22;64852;48.092;-1.640;2024-03-17T11:21:24;18.20;99.90
76120;DHT22;64852;48.092;-1.640;2024-03-17T11:23:55;18.10;99.90
76120;DHT22;64852;48.092;-1.640;2024-03-17T11:26:26;18.00;99.90
76120;DHT22;64852;48.092;-1.640;2024-03-17T11:28:51;17.80;99.90
76120;DHT22;64852;48.092;-1.640;2024-03-17T11:31:33;17.70;99.90
76120;DHT22;64852;48.092;-1.640;2024-03-17T11:34:01;17.60;99.90
76120;DHT22;64852;48.092;-1.640;2024-03-17T11:41:41;17.70;99.90
76120;DHT22;64852;48.092;-1.640;2024-03-17T11:46:54;17.90;99.90
76120;DHT22;64852;48.092;-1.640;2024-03-17T11:51:49;17.80;99.90
76120;DHT22;64852;48.092;-1.640;2024-03-17T11:54:16;17.80;99.90
76120;DHT22;64852;48.092;-1.640;2024-03-17T11:56:53;17.70;99.90
76120;DHT22;64852;48.092;-1.640;2024-03-17T11:59:20;17.60;99.90
76120;DHT22;64852;48.092;-1.640;2024-03-17T12:01:46;17.60;99.90
76120;DHT22;64852;48.092;-1.640;2024-03-17T12:04:13;17.60;99.90
76120;DHT22;64852;48.092;-1.640;2024-03-17T12:06:38;17.40;99.90
76120;DHT22;64852;48.092;-1.640;2024-03-17T12:09:07;17.30;99.90
76120;DHT22;64852;48.092;-1.640;2024-03-17T12:11:35;17.20;99.90
76120;DHT22;64852;48.092;-1.640;2024-03-17T12:14:08;17.10;99.90
76120;DHT22;64852;48.092;-1.640;2024-03-17T12:16:34;17.00;99.90
76120;DHT22;64852;48.092;-1.640;2024-03-17T12:19:07;16.90;99.90
76120;DHT22;64852;48.092;-1.640;2024-03-17T12:21:32;16.90;99.90
76120;DHT22;64852;48.092;-1.640;2024-03-17T12:24:00;16.90;99.90
76120;DHT22;64852;48.092;-1.640;2024-03-17T12:26:26;16.80;99.90
76120;DHT22;64852;48.092;-1.640;2024-03-17T12:28:51;16.90;99.90
76120;DHT22;64852;48.092;-1.640;2024-03-17T12:31:17;16.90;99.90
76120;DHT22;64852;48.092;-1.640;2024-03-17T12:33:42;16.90;99.90
76120;DHT22;64852;48.092;-1.640;2024-03-17T12:36:10;17.00;99.90
76120;DHT22;64852;48.092;-1.640;2024-03-17T12:38:37;16.80;99.90
76120;DHT22;64852;48.092;-1.640;2024-03-17T12:41:03;16.70;99.90
76120;DHT22;64852;48.092;-1.640;2024-03-17T12:43:32;16.80;99.90
76120;DHT22;64852;48.092;-1.640;2024-03-17T12:45:57;17.00;99.90
76120;DHT22;64852;48.092;-1.640;2024-03-17T12:48:23;17.10;99.90
76120;DHT22;64852;48.092;-1.640;2024-03-17T12:50:49;17.40;99.90
76120;DHT22;64852;48.092;-1.640;2024-03-17T12:53:16;17.40;99.90
76120;DHT22;64852;48.092;-1.640;2024-03-17T12:55:52;17.50;99.90
76120;DHT22;64852;48.092;-1.640;2024-03-17T12:58:37;17.50;99.90
76120;DHT22;64852;48.092;-1.640;2024-03-17T13:01:21;17.70;99.90
76120;DHT22;64852;48.092;-1.640;2024-03-17T13:03:47;17.80;99.90
76120;DHT22;64852;48.092;-1.640;2024-03-17T13:06:23;17.80;99.90
76120;DHT22;64852;48.092;-1.640;2024-03-17T13:08:52;17.70;99.90
76120;DHT22;64852;48.092;-1.640;2024-03-17T13:11:17;17.70;99.90
76120;DHT22;64852;48.092;-1.640;2024-03-17T13:13:43;17.80;99.90
76120;DHT22;64852;48.092;-1.640;2024-03-17T13:16:08;17.70;99.90
76120;DHT22;64852;48.092;-1.640;2024-03-17T13:18:35;17.70;99.90
76120;DHT22;64852;48.092;-1.640;2024-03-17T13:21:00;17.80;99.90
76120;DHT22;64852;48.092;-1.640;2024-03-17T13:23:26;18.10;99.90
76120;DHT22;64852;48.092;-1.640;2024-03-17T13:25:52;18.30;99.90
76120;DHT22;64852;48.092;-1.640;2024-03-17T13:28:17;18.80;99.90
76120;DHT22;64852;48.092;-1.640;2024-03-17T13:30:43;18.90;99.90
76120;DHT22;64852;48.092;-1.640;2024-03-17T13:33:09;19.80;99.90
76120;DHT22;64852;48.092;-1.640;2024-03-17T13:35:36;20.20;99.90
76120;DHT22;64852;48.092;-1.640;2024-03-17T13:38:05;20.30;99.90
76120;DHT22;64852;48.092;-1.640;2024-03-17T13:40:32;20.30;99.90
76120;DHT22;64852;48.092;-1.640;2024-03-17T13:42:58;20.20;99.90
76120;DHT22;64852;48.092;-1.640;2024-03-17T13:45:24;20.30;99.90
76120;DHT22;64852;48.092;-1.640;2024-03-17T13:47:57;20.20;99.90
76120;DHT22;64852;48.092;-1.640;2024-03-17T13:50:23;20.00;99.90
76120;DHT22;64852;48.092;-1.640;2024-03-17T13:52:49;19.40;99.90
76120;DHT22;64852;48.092;-1.640;2024-03-17T13:55:15;19.20;99.90
76120;DHT22;64852;48.092;-1.640;2024-03-17T13:57:44;19.20;99.90
76120;DHT22;64852;48.092;-1.640;2024-03-17T14:00:11;19.10;99.90
76120;DHT22;64852;48.092;-1.640;2024-03-17T14:02:44;19.10;99.90
76120;DHT22;64852;48.092;-1.640;2024-03-17T14:05:14;19.00;99.90
76120;DHT22;64852;48.092;-1.640;2024-03-17T14:07:40;19.00;99.90
76120;DHT22;64852;48.092;-1.640;2024-03-17T14:10:06;19.00;99.90
76120;DHT22;64852;48.092;-1.640;2024-03-17T14:12:34;18.90;99.90
76120;DHT22;64852;48.092;-1.640;2024-03-17T14:14:59;18.90;99.90
76120;DHT22;64852;48.092;-1.640;2024-03-17T14:17:25;18.60;99.90
76120;DHT22;64852;48.092;-1.640;2024-03-17T14:19:50;18.60;99.90
76120;DHT22;64852;48.092;-1.640;2024-03-17T14:22:16;18.60;99.90
76120;DHT22;64852;48.092;-1.640;2024-03-17T14:24:41;18.70;99.90
76120;DHT22;64852;48.092;-1.640;2024-03-17T14:27:07;18.90;99.90
76120;DHT22;64852;48.092;-1.640;2024-03-17T14:29:33;18.90;99.90
76120;DHT22;64852;48.092;-1.640;2024-03-17T14:31:58;18.90;99.90
76120;DHT22;64852;48.092;-1.640;2024-03-17T14:34:24;18.90;99.90
76120;DHT22;64852;48.092;-1.640;2024-03-17T14:36:49;19.00;99.90
76120;DHT22;64852;48.092;-1.640;2024-03-17T14:39:15;19.10;99.90
76120;DHT22;64852;48.092;-1.640;2024-03-17T14:41:40;19.40;99.90
76120;DHT22;64852;48.092;-1.640;2024-03-17T14:44:06;19.70;99.90
76120;DHT22;64852;48.092;-1.640;2024-03-17T14:46:31;19.70;99.90
76120;DHT22;64852;48.092;-1.640;2024-03-17T14:48:57;19.80;99.90
76120;DHT22;64852;48.092;-1.640;2024-03-17T14:51:22;19.90;99.90
76120;DHT22;64852;48.092;-1.640;2024-03-17T14:53:48;19.80;99.90
76120;DHT22;64852;48.092;-1.640;2024-03-17T14:56:15;19.80;99.90
76120;DHT22;64852;48.092;-1.640;2024-03-17T14:58:41;19.70;99.90
76120;DHT22;64852;48.092;-1.640;2024-03-17T15:01:07;19.60;99.90
76120;DHT22;64852;48.092;-1.640;2024-03-17T15:03:34;19.50;99.90
76120;DHT22;64852;48.092;-1.640;2024-03-17T15:06:00;19.30;99.90
76120;DHT22;64852;48.092;-1.640;2024-03-17T15:08:26;19.10;99.90
76120;DHT22;64852;48.092;-1.640;2024-03-17T15:10:51;19.00;99.90
76120;DHT22;64852;48.092;-1.640;2024-03-17T15:13:20;18.90;99.90
76120;DHT22;64852;48.092;-1.640;2024-03-17T15:15:45;18.80;99.90
76120;DHT22;64852;48.092;-1.640;2024-03-17T15:18:12;18.80;99.90
76120;DHT22;64852;48.092;-1.640;2024-03-17T15:20:38;18.60;99.90
76120;DHT22;64852;48.092;-1.640;2024-03-17T15:23:03;18.50;99.90
76120;DHT22;64852;48.092;-1.640;2024-03-17T15:25:30;18.30;99.90
76120;DHT22;64852;48.092;-1.640;2024-03-17T15:27:55;18.30;99.90
76120;DHT22;64852;48.092;-1.640;2024-03-17T15:30:22;18.30;99.90
76120;DHT22;64852;48.092;-1.640;2024-03-17T15:32:51;18.30;99.90